Time;durP1;ratioP1;P1;durP2;ratioP2;P2;SDS_P1;SDS_P2;PMS_P1;PMS_P2;Temp;Humidity;BMP_temperature;BMP_pressure;BME280_temperature;BME280_humidity;BME280_pressure;Samples;Min_cycle;Max_cycle;Signal;HPM_P1;HPM_P2
2021/04/23 00:02:39;;;;;;;5.63;3.00;;;;;;;3.63;83.26;99072.92;3787829;77;43328;-25
2021/04/23 00:07:45;;;;;;;8.53;3.60;;;;;;;3.44;85.35;99071.09;3782025;77;44381;-25
2021/04/23 00:12:51;;;;;;;6.77;3.07;;;;;;;3.28;87.68;99076.57;3786003;77;44062;-25
2021/04/23 00:17:58;;;;;;;8.60;3.30;;;;;;;3.04;88.29;99072.70;3783755;77;43307;-24
2021/04/23 00:23:07;;;;;;;5.70;3.00;;;;;;;2.97;89.32;99070.52;3785722;77;43700;-25
2021/04/23 00:28:17;;;;;;;10.77;3.30;;;;;;;2.98;89.83;99074.44;3778290;77;43717;-25
2021/04/23 00:33:24;;;;;;;6.03;3.00;;;;;;;2.87;90.66;99077.76;3785476;77;43384;-25
2021/04/23 00:38:30;;;;;;;8.63;3.30;;;;;;;2.68;93.85;99073.21;3780153;76;44021;-26
2021/04/23 00:43:38;;;;;;;7.90;3.43;;;;;;;2.52;95.79;99078.14;3781998;77;43416;-25
2021/04/23 00:48:47;;;;;;;7.33;3.20;;;;;;;2.38;97.45;99081.65;3778391;77;44073;-25
2021/04/23 00:53:56;;;;;;;6.87;3.70;;;;;;;2.31;98.72;99082.95;3780065;77;43641;-24
2021/04/23 00:59:03;;;;;;;5.70;3.33;;;;;;;2.20;100.00;99086.27;3775448;77;43483;-24
2021/04/23 01:04:12;;;;;;;8.87;3.60;;;;;;;2.10;100.00;99085.95;3769453;77;43463;-25
2021/04/23 01:09:20;;;;;;;7.80;3.13;;;;;;;2.02;100.00;99087.34;3767703;77;43725;-25
2021/04/23 01:14:26;;;;;;;9.30;3.40;;;;;;;2.00;100.00;99084.79;3764615;77;42856;-24
2021/04/23 01:19:32;;;;;;;9.47;3.70;;;;;;;1.96;100.00;99084.58;3769977;77;44066;-25
2021/04/23 01:24:39;;;;;;;8.70;3.50;;;;;;;1.91;100.00;99086.66;3767257;77;44060;-25
2021/04/23 01:29:45;;;;;;;7.90;3.20;;;;;;;1.94;100.00;99083.84;3772570;77;44089;-25
2021/04/23 01:34:50;;;;;;;8.83;3.80;;;;;;;1.94;100.00;99084.67;3766025;77;44501;-25
2021/04/23 01:39:56;;;;;;;7.80;3.27;;;;;;;1.88;100.00;99085.05;3768860;77;43449;-25
2021/04/23 01:45:03;;;;;;;8.57;3.40;;;;;;;1.82;100.00;99084.91;3762164;77;44447;-25
2021/04/23 01:50:13;;;;;;;7.90;3.20;;;;;;;1.76;100.00;99091.92;3764025;77;44453;-25
2021/04/23 01:55:23;;;;;;;6.00;3.23;;;;;;;1.73;100.00;99091.25;3759291;77;43679;-25
2021/04/23 02:00:32;;;;;;;10.57;4.03;;;;;;;1.67;100.00;99099.94;3763878;77;43734;-25
2021/04/23 02:05:39;;;;;;;9.33;4.27;;;;;;;1.59;100.00;99105.33;3754909;77;44481;-25
2021/04/23 02:10:47;;;;;;;8.27;3.40;;;;;;;1.52;100.00;99100.35;3760587;77;44157;-25
2021/04/23 02:15:53;;;;;;;9.20;4.03;;;;;;;1.47;100.00;99101.07;3758961;77;43436;-25
2021/04/23 02:20:59;;;;;;;9.93;4.40;;;;;;;1.39;100.00;99104.64;3783067;77;44078;-25
2021/04/23 02:26:05;;;;;;;11.50;3.50;;;;;;;1.37;100.00;99107.39;3785944;77;44045;-25
2021/04/23 02:31:14;;;;;;;8.53;4.07;;;;;;;1.35;100.00;99113.25;3786148;77;44128;-25
2021/04/23 02:36:21;;;;;;;8.83;4.33;;;;;;;1.27;100.00;99115.48;3781918;77;44002;-25
2021/04/23 02:41:27;;;;;;;10.10;3.93;;;;;;;1.19;100.00;99123.87;3801560;77;44096;-25
2021/04/23 02:46:35;;;;;;;9.43;3.63;;;;;;;1.18;100.00;99118.17;3793942;77;43439;-25
2021/04/23 02:51:44;;;;;;;10.10;4.10;;;;;;;1.12;100.00;99123.80;3781190;77;44055;-24
2021/04/23 02:56:50;;;;;;;10.17;3.33;;;;;;;1.09;100.00;99123.99;3786122;77;44045;-25
2021/04/23 03:01:57;;;;;;;11.23;4.23;;;;;;;1.04;100.00;99128.23;3648326;80;44076;-26
2021/04/23 03:07:04;;;;;;;9.13;4.10;;;;;;;1.04;100.00;99128.68;3715855;79;44419;-24
2021/04/23 03:12:12;;;;;;;9.03;4.00;;;;;;;1.01;100.00;99138.13;3773302;77;43690;-24
2021/04/23 03:17:17;;;;;;;10.13;4.47;;;;;;;1.00;100.00;99137.77;3781624;77;44041;-24
2021/04/23 03:22:23;;;;;;;10.27;3.87;;;;;;;0.95;100.00;99138.47;3769209;77;43676;-24
2021/04/23 03:27:30;;;;;;;9.40;4.10;;;;;;;0.95;100.00;99139.80;3781144;77;44150;-24
2021/04/23 03:32:36;;;;;;;11.23;4.30;;;;;;;0.87;100.00;99134.45;3774659;77;44057;-23
2021/04/23 03:37:44;;;;;;;12.03;3.87;;;;;;;0.85;100.00;99134.99;3772830;77;43336;-23
2021/04/23 03:42:51;;;;;;;8.70;4.13;;;;;;;0.80;100.00;99143.66;3766164;77;43267;-23
2021/04/23 03:47:57;;;;;;;9.90;4.13;;;;;;;0.74;100.00;99146.64;3768841;77;43718;-23
2021/04/23 03:53:06;;;;;;;11.70;4.37;;;;;;;0.68;100.00;99144.30;3760847;77;43297;-23
2021/04/23 03:58:13;;;;;;;13.27;4.97;;;;;;;0.61;100.00;99159.67;3766736;77;44079;-23
2021/04/23 04:03:21;;;;;;;10.77;4.50;;;;;;;0.58;100.00;99169.98;3760960;77;43674;-23
2021/04/23 04:08:27;;;;;;;9.83;3.87;;;;;;;0.50;100.00;99180.13;3767034;77;43964;-23
2021/04/23 04:13:34;;;;;;;16.73;4.97;;;;;;;0.41;100.00;99186.75;3759407;77;44050;-23
2021/04/23 04:18:40;;;;;;;9.43;4.30;;;;;;;0.41;100.00;99188.56;3764859;77;43752;-23
2021/04/23 04:23:46;;;;;;;13.40;5.93;;;;;;;0.35;100.00;99196.81;3763685;77;44376;-23
2021/04/23 04:28:52;;;;;;;22.10;8.70;;;;;;;0.35;100.00;99200.78;3623179;80;43039;-23
2021/04/23 04:33:59;;;;;;;26.97;13.20;;;;;;;0.32;100.00;99199.16;3751071;77;44829;-23
2021/04/23 04:39:06;;;;;;;24.77;11.73;;;;;;;0.31;100.00;99214.67;3765247;77;43525;-21
2021/04/23 04:44:12;;;;;;;17.50;7.37;;;;;;;0.32;100.00;99216.84;3756579;77;44292;-21
2021/04/23 04:49:18;;;;;;;12.10;5.23;;;;;;;0.33;100.00;99223.41;3765181;77;44593;-21
2021/04/23 04:54:26;;;;;;;9.80;5.37;;;;;;;0.32;100.00;99222.13;3755963;77;44414;-21
2021/04/23 04:59:32;;;;;;;14.30;6.33;;;;;;;0.32;100.00;99227.44;3759707;77;44064;-21
2021/04/23 05:04:37;;;;;;;11.63;5.00;;;;;;;0.33;100.00;99231.80;3766682;77;43702;-20
2021/04/23 05:09:43;;;;;;;11.33;5.07;;;;;;;0.38;100.00;99236.42;3758931;77;44112;-21
2021/04/23 05:14:49;;;;;;;8.70;4.73;;;;;;;0.43;100.00;99240.56;3756828;77;44572;-21
2021/04/23 05:19:56;;;;;;;14.80;5.60;;;;;;;0.52;100.00;99248.53;3760584;77;44062;-22
2021/04/23 05:25:03;;;;;;;15.83;5.73;;;;;;;0.61;100.00;99255.14;3755981;77;43678;-20
2021/04/23 05:30:12;;;;;;;22.23;6.63;;;;;;;0.73;100.00;99250.53;3762499;77;42890;-23
2021/04/23 05:35:21;;;;;;;15.83;5.63;;;;;;;0.88;100.00;99247.55;3754319;77;43059;-21
2021/04/23 05:40:29;;;;;;;14.43;5.63;;;;;;;1.10;100.00;99260.19;3764204;77;43665;-20
2021/04/23 05:45:37;;;;;;;14.27;5.10;;;;;;;1.24;100.00;99266.95;3768494;77;43680;-21
2021/04/23 05:50:43;;;;;;;10.33;5.13;;;;;;;1.38;100.00;99276.83;3645891;80;43014;-21
2021/04/23 05:55:49;;;;;;;12.03;5.30;;;;;;;1.52;100.00;99280.09;3702355;79;43669;-22
2021/04/23 06:00:55;;;;;;;14.67;5.57;;;;;;;1.65;100.00;99285.11;3772394;77;43125;-21
2021/04/23 06:06:01;;;;;;;12.40;5.57;;;;;;;1.81;100.00;99289.59;3766690;77;44012;-21
2021/04/23 06:11:14;;;;;;;13.33;5.03;;;;;;;1.96;100.00;99295.85;3771047;77;44130;-22
2021/04/23 06:16:15;;;;;;;10.53;5.10;;;;;;;2.13;100.00;99301.56;3766959;77;43702;-21
2021/04/23 06:21:22;;;;;;;16.30;5.43;;;;;;;2.27;100.00;99298.14;3781135;77;43705;-21
2021/04/23 06:26:28;;;;;;;12.50;5.40;;;;;;;2.43;100.00;99302.95;3777017;77;42909;-21
2021/04/23 06:31:34;;;;;;;14.87;6.10;;;;;;;2.58;100.00;99301.23;3772534;77;44024;-21
2021/04/23 06:36:40;;;;;;;14.40;6.23;;;;;;;2.75;100.00;99301.59;3772572;77;44046;-21
2021/04/23 06:41:47;;;;;;;11.90;6.30;;;;;;;2.93;100.00;99309.42;3770145;77;43407;-22
2021/04/23 06:46:53;;;;;;;14.30;5.70;;;;;;;3.07;100.00;99301.47;3761501;77;44074;-21
2021/04/23 06:52:00;;;;;;;12.37;5.70;;;;;;;3.31;100.00;99306.27;3762729;77;43700;-24
2021/04/23 06:57:07;;;;;;;13.90;6.10;;;;;;;3.62;100.00;99308.86;3767666;77;43728;-24
2021/04/23 07:02:13;;;;;;;13.70;5.87;;;;;;;3.82;100.00;99310.29;3764213;77;43363;-24
2021/04/23 07:07:19;;;;;;;12.00;5.90;;;;;;;4.14;100.00;99311.38;3770861;77;44186;-24
2021/04/23 07:12:25;;;;;;;15.83;6.30;;;;;;;4.12;100.00;99313.28;3764120;77;42778;-24
2021/04/23 07:17:31;;;;;;;13.83;5.50;;;;;;;4.36;100.00;99313.50;3765520;77;43669;-24
2021/04/23 07:22:39;;;;;;;11.00;5.30;;;;;;;4.56;100.00;99306.86;3760852;77;43360;-26
2021/04/23 07:27:46;;;;;;;14.13;5.17;;;;;;;4.74;100.00;99307.46;3766612;77;44451;-24
2021/04/23 07:32:52;;;;;;;13.63;5.97;;;;;;;4.94;100.00;99318.61;3764082;77;43677;-25
2021/04/23 07:38:00;;;;;;;11.70;6.23;;;;;;;5.16;100.00;99318.52;3765785;77;44046;-22
2021/04/23 07:43:06;;;;;;;11.03;6.00;;;;;;;5.24;100.00;99310.33;3777373;77;44062;-22
2021/04/23 07:48:13;;;;;;;10.40;5.07;;;;;;;4.98;100.00;99331.30;3672932;79;43362;-23
2021/04/23 07:53:20;;;;;;;10.57;5.10;;;;;;;5.03;100.00;99334.50;3717123;78;43682;-22
2021/04/23 07:58:26;;;;;;;11.17;5.33;;;;;;;5.03;100.00;99335.38;3793694;77;44034;-22
2021/04/23 08:03:35;;;;;;;9.97;5.50;;;;;;;4.96;100.00;99335.88;3792679;77;44505;-23
2021/04/23 08:08:41;;;;;;;10.47;5.23;;;;;;;4.90;100.00;99337.15;3700558;77;88159;-22
2021/04/23 08:13:48;;;;;;;10.73;4.70;;;;;;;4.91;100.00;99337.53;3723542;79;42989;-23
2021/04/23 08:18:55;;;;;;;10.87;5.03;;;;;;;4.84;100.00;99339.75;3722634;79;43677;-22
2021/04/23 08:24:01;;;;;;;7.77;4.83;;;;;;;4.95;100.00;99349.70;3723648;79;44015;-22
2021/04/23 08:29:10;;;;;;;13.00;5.57;;;;;;;4.95;100.00;99341.69;3720528;79;44584;-22
2021/04/23 08:34:17;;;;;;;7.73;4.50;;;;;;;5.08;100.00;99339.91;3728434;79;44033;-22
2021/04/23 08:39:23;;;;;;;9.93;4.27;;;;;;;5.21;100.00;99334.61;3721074;78;44174;-22
2021/04/23 08:44:29;;;;;;;10.57;4.33;;;;;;;5.36;96.67;99329.15;3715427;79;44563;-22
2021/04/23 08:49:36;;;;;;;9.37;4.83;;;;;;;5.40;93.83;99331.53;3702024;80;43431;-22
2021/04/23 08:54:44;;;;;;;9.30;4.40;;;;;;;5.32;97.89;99335.69;3588814;82;43692;-22
2021/04/23 08:59:50;;;;;;;9.00;4.83;;;;;;;5.21;98.08;99339.08;3582661;82;44230;-22
2021/04/23 09:04:56;;;;;;;10.30;4.00;;;;;;;5.15;97.70;99347.03;3648061;81;44087;-22
2021/04/23 09:10:10;;;;;;;9.33;4.30;;;;;;;5.27;94.61;99341.34;3637110;81;43670;-22
2021/04/23 09:15:26;;;;;;;10.67;3.97;;;;;;;5.38;96.82;99344.14;3637310;81;43540;-22
2021/04/23 09:20:32;;;;;;;7.73;4.10;;;;;;;5.46;95.63;99356.11;3632959;81;43500;-23
2021/04/23 09:25:44;;;;;;;10.33;4.33;;;;;;;5.25;93.25;99352.12;3630165;81;42963;-22
2021/04/23 09:30:49;;;;;;;10.63;3.93;;;;;;;5.30;91.21;99362.98;3632963;81;44066;-22
2021/04/23 09:35:56;;;;;;;10.33;3.93;;;;;;;5.39;91.85;99363.69;3637249;81;44950;-22
2021/04/23 09:41:05;;;;;;;8.83;3.67;;;;;;;5.40;90.62;99352.04;3633647;81;43414;-23
2021/04/23 09:46:11;;;;;;;8.23;3.87;;;;;;;5.48;89.12;99352.36;3613343;81;44862;-23
2021/04/23 09:51:20;;;;;;;5.37;3.70;;;;;;;5.65;90.38;99355.69;3620903;82;44201;-23
2021/04/23 09:56:34;;;;;;;7.97;3.73;;;;;;;5.82;86.10;99352.67;3688263;80;44067;-22
2021/04/23 10:02:02;;;;;;;10.27;3.33;;;;;;;5.71;86.48;99356.58;3674405;80;43345;-22
2021/04/23 10:07:21;;;;;;;8.03;3.87;;;;;;;6.04;84.35;99355.69;3694708;80;43473;-22
2021/04/23 10:12:38;;;;;;;7.03;3.80;;;;;;;6.24;83.64;99353.77;3693915;80;44432;-22
2021/04/23 10:17:48;;;;;;;5.07;3.40;;;;;;;6.38;86.93;99350.12;3694397;79;43361;-24
2021/04/23 10:22:55;;;;;;;10.03;4.00;;;;;;;6.39;80.96;99360.33;3693775;80;43497;-21
2021/04/23 10:28:03;;;;;;;7.43;4.17;;;;;;;6.72;82.95;99341.41;3690015;80;43718;-21
2021/04/23 10:33:11;;;;;;;7.70;3.73;;;;;;;7.13;80.20;99333.91;3697141;80;43980;-22
2021/04/23 10:38:20;;;;;;;9.30;4.22;;;;;;;7.22;78.68;99336.75;3694468;80;43715;-21
2021/04/23 10:43:26;;;;;;;8.30;3.77;;;;;;;6.90;80.24;99331.14;3702516;80;69083;-23
2021/04/23 10:48:36;;;;;;;7.17;4.10;;;;;;;6.97;81.50;99336.43;3705282;80;44069;-24
2021/04/23 10:53:44;;;;;;;7.05;3.45;;;;;;;7.62;81.56;99338.17;3709223;80;43666;-22
2021/04/23 10:58:52;;;;;;;7.10;3.47;;;;;;;7.79;69.16;99340.03;3702230;80;43415;-22
2021/04/23 11:04:10;;;;;;;6.20;3.72;;;;;;;7.63;74.27;99342.56;3710148;80;43676;-22
2021/04/23 11:09:24;;;;;;;8.07;4.10;;;;;;;7.64;73.76;99352.83;3708458;80;43469;-22
2021/04/23 11:14:32;;;;;;;7.20;3.47;;;;;;;7.58;70.82;99341.22;3709885;80;43664;-22
2021/04/23 11:19:38;;;;;;;8.33;3.83;;;;;;;8.10;70.38;99338.45;3708592;80;44033;-22
2021/04/23 11:25:13;;;;;;;6.50;3.53;;;;;;;8.26;69.65;99332.70;3705260;80;43008;-22
2021/04/23 11:30:20;;;;;;;8.60;3.80;;;;;;;8.28;69.52;99328.54;3700225;80;69103;-23
2021/04/23 11:35:27;;;;;;;6.37;3.45;;;;;;;8.60;64.47;99335.35;3709902;80;43431;-24
2021/04/23 11:40:33;;;;;;;6.17;3.20;;;;;;;8.23;67.04;99339.66;3707310;80;43716;-22
2021/04/23 11:45:42;;;;;;;7.00;3.80;;;;;;;8.27;66.80;99341.12;3702443;79;44510;-22
2021/04/23 11:50:47;;;;;;;7.92;3.60;;;;;;;8.30;68.74;99335.98;3697846;79;42630;-21
2021/04/23 11:55:54;;;;;;;6.90;3.70;;;;;;;8.51;67.41;99337.45;3686335;80;44091;-22
2021/04/23 12:01:00;;;;;;;8.33;3.98;;;;;;;8.76;66.71;99334.09;3706320;80;43703;-23
2021/04/23 12:06:06;;;;;;;6.17;4.00;;;;;;;8.74;64.51;99331.52;3709700;80;43694;-21
2021/04/23 12:11:12;;;;;;;8.20;3.47;;;;;;;8.74;65.54;99326.64;3706688;80;44471;-22
2021/04/23 12:16:18;;;;;;;9.43;4.15;;;;;;;9.28;62.92;99323.95;3709808;80;43301;-22
2021/04/23 12:21:24;;;;;;;8.28;4.28;;;;;;;9.24;63.86;99321.52;3706492;80;43737;-21
2021/04/23 12:26:30;;;;;;;9.70;4.65;;;;;;;9.36;64.13;99320.98;3708351;80;43570;-22
2021/04/23 12:31:39;;;;;;;10.35;4.62;;;;;;;9.32;61.94;99326.25;3707738;80;44219;-21
2021/04/23 12:36:47;;;;;;;9.43;4.42;;;;;;;9.60;64.29;99315.81;3701645;80;43681;-22
2021/04/23 12:41:55;;;;;;;10.98;4.50;;;;;;;9.20;61.95;99320.09;3707291;80;44090;-22
2021/04/23 12:47:05;;;;;;;8.88;4.35;;;;;;;9.62;61.12;99331.81;3700813;79;43400;-22
2021/04/23 12:52:13;;;;;;;9.68;3.98;;;;;;;9.73;61.53;99322.83;3700733;80;43360;-21
2021/04/23 12:57:25;;;;;;;16.90;4.67;;;;;;;10.06;61.22;99313.60;3700926;79;44022;-22
2021/04/23 13:02:32;;;;;;;8.20;4.55;;;;;;;9.94;60.66;99307.48;3702709;80;44178;-22
2021/04/23 13:07:46;;;;;;;7.92;4.12;;;;;;;10.07;59.61;99309.09;3697391;79;43371;-22
2021/04/23 13:13:06;;;;;;;7.83;4.28;;;;;;;10.16;59.01;99303.75;3698696;80;43399;-22
2021/04/23 13:18:21;;;;;;;9.73;4.60;;;;;;;10.10;60.02;99309.66;3697330;80;43676;-22
2021/04/23 13:23:36;;;;;;;9.87;5.00;;;;;;;9.87;58.83;99300.44;3699562;79;42979;-22
2021/04/23 13:28:43;;;;;;;7.00;4.63;;;;;;;10.24;58.86;99307.58;3695756;80;43711;-22
2021/04/23 13:33:52;;;;;;;7.12;4.50;;;;;;;10.65;59.28;99290.88;3549390;82;44168;-22
2021/04/23 13:38:59;;;;;;;8.88;4.55;;;;;;;10.58;57.76;99302.73;3688902;80;43392;-20
2021/04/23 13:44:12;;;;;;;8.20;4.40;;;;;;;11.14;58.00;99299.47;3695651;79;43456;-21
2021/04/23 13:49:27;;;;;;;7.22;4.72;;;;;;;11.35;54.56;99294.75;3671341;80;44057;-22
2021/04/23 13:54:34;;;;;;;10.40;4.90;;;;;;;11.57;55.47;99288.69;3582106;81;43484;-22
2021/04/23 13:59:41;;;;;;;7.62;5.20;;;;;;;11.34;56.25;99282.77;3706430;80;44181;-21
2021/04/23 14:04:52;;;;;;;8.30;4.72;;;;;;;11.54;54.24;99282.23;3711198;80;44030;-22
2021/04/23 14:10:00;;;;;;;9.00;4.72;;;;;;;11.88;54.33;99285.73;3703455;80;43381;-22
2021/04/23 14:15:09;;;;;;;12.10;5.03;;;;;;;12.19;53.97;99276.01;3708083;80;43327;-22
2021/04/23 14:20:18;;;;;;;9.48;4.47;;;;;;;12.52;52.33;99275.05;3704294;80;44013;-22
2021/04/23 14:25:26;;;;;;;10.00;4.53;;;;;;;12.59;54.43;99261.73;3710035;80;44026;-23
2021/04/23 14:30:35;;;;;;;8.18;4.62;;;;;;;12.46;53.27;99261.64;3701411;80;43493;-22
2021/04/23 14:35:42;;;;;;;9.33;5.03;;;;;;;12.43;54.27;99255.67;3708450;80;44019;-22
2021/04/23 14:40:49;;;;;;;10.05;4.97;;;;;;;13.07;50.64;99252.89;3707518;80;44021;-22
2021/04/23 14:45:55;;;;;;;8.65;4.25;;;;;;;12.86;51.03;99250.51;3699873;80;43303;-22
2021/04/23 14:51:02;;;;;;;8.30;4.72;;;;;;;13.00;50.29;99247.25;3700563;80;44065;-22
2021/04/23 14:56:07;;;;;;;7.80;3.90;;;;;;;12.78;51.13;99244.52;3546488;82;44079;-22
2021/04/23 15:01:15;;;;;;;9.55;4.80;;;;;;;13.00;49.47;99247.25;3610343;82;43559;-22
2021/04/23 15:06:21;;;;;;;5.40;4.50;;;;;;;13.16;48.99;99246.53;3606819;81;43471;-22
2021/04/23 15:11:28;;;;;;;7.78;4.47;;;;;;;12.75;49.50;99240.28;3696037;79;43296;-23
2021/04/23 15:16:35;;;;;;;7.72;4.60;;;;;;;13.00;49.83;99237.79;3690809;80;43361;-22
2021/04/23 15:21:43;;;;;;;7.55;4.22;;;;;;;13.43;49.04;99240.66;3691437;80;43734;-22
2021/04/23 15:26:49;;;;;;;9.90;5.17;;;;;;;13.68;49.64;99231.33;3691921;80;44056;-22
2021/04/23 15:31:56;;;;;;;11.08;5.00;;;;;;;13.54;48.74;99227.34;3694805;80;44780;-22
2021/04/23 15:37:02;;;;;;;9.35;4.58;;;;;;;13.89;47.52;99221.94;3691548;80;43332;-22
2021/04/23 15:42:09;;;;;;;7.65;4.42;;;;;;;13.75;48.85;99224.25;3699742;79;43766;-23
2021/04/23 15:47:15;;;;;;;8.63;5.00;;;;;;;13.25;47.66;99228.50;3679116;79;44630;-22
2021/04/23 15:52:22;;;;;;;7.08;4.80;;;;;;;12.45;51.65;99211.78;3692941;79;42658;-25
2021/04/23 15:57:28;;;;;;;8.20;5.03;;;;;;;12.81;50.45;99215.83;3688355;79;44111;-22
2021/04/23 16:02:34;;;;;;;8.20;4.62;;;;;;;13.24;50.05;99214.63;3698428;80;44168;-22
2021/04/23 16:07:40;;;;;;;9.73;4.90;;;;;;;13.41;48.94;99209.67;3691232;80;43414;-22
2021/04/23 16:12:46;;;;;;;7.53;4.25;;;;;;;13.16;48.13;99205.11;3696449;80;43463;-21
2021/04/23 16:17:52;;;;;;;9.23;4.90;;;;;;;13.22;50.56;99208.03;3691009;80;44019;-22
2021/04/23 16:22:59;;;;;;;8.38;4.40;;;;;;;12.56;50.15;99210.20;3694460;80;43329;-22
2021/04/23 16:28:06;;;;;;;7.80;4.90;;;;;;;13.10;49.54;99214.70;3696360;80;44061;-24
2021/04/23 16:33:12;;;;;;;11.78;4.97;;;;;;;13.24;48.21;99215.45;3697541;80;43465;-22
2021/04/23 16:38:19;;;;;;;8.53;4.80;;;;;;;12.66;49.12;99215.53;3695561;80;42954;-23
2021/04/23 16:43:26;;;;;;;7.65;4.70;;;;;;;12.66;50.25;99212.83;3697820;79;44043;-23
2021/04/23 16:48:31;;;;;;;7.92;4.53;;;;;;;12.75;49.34;99211.05;3695309;80;43721;-23
2021/04/23 16:53:39;;;;;;;7.37;4.10;;;;;;;13.10;49.28;99201.19;3695955;80;44204;-23
2021/04/23 16:58:47;;;;;;;7.10;4.50;;;;;;;13.27;47.35;99204.84;3693707;80;43417;-23
2021/04/23 17:03:55;;;;;;;6.75;4.15;;;;;;;13.69;48.31;99195.95;3693581;80;43420;-22
2021/04/23 17:09:01;;;;;;;7.08;4.58;;;;;;;13.74;47.38;99192.76;3695170;80;43391;-22
2021/04/23 17:14:08;;;;;;;8.43;4.50;;;;;;;13.70;48.37;99192.23;3697364;80;43326;-22
2021/04/23 17:19:15;;;;;;;6.90;4.15;;;;;;;13.73;48.05;99191.05;3694008;80;43358;-23
2021/04/23 17:24:21;;;;;;;8.93;4.62;;;;;;;13.85;47.95;99192.45;3698867;79;42952;-23
2021/04/23 17:29:27;;;;;;;7.75;4.17;;;;;;;13.85;48.57;99187.56;3690681;80;44145;-22
2021/04/23 17:34:35;;;;;;;6.83;4.00;;;;;;;13.55;48.25;99188.44;3698093;79;44801;-22
2021/04/23 17:39:43;;;;;;;8.70;4.30;;;;;;;13.29;49.45;99185.21;3679460;79;43440;-22
2021/04/23 17:44:51;;;;;;;10.55;4.20;;;;;;;13.39;48.80;99178.34;3686224;80;43451;-22
2021/04/23 17:49:59;;;;;;;7.08;4.50;;;;;;;13.05;50.53;99177.80;3687810;80;43729;-23
2021/04/23 17:55:10;;;;;;;9.15;4.05;;;;;;;12.72;51.86;99181.62;3697661;80;43734;-23
2021/04/23 18:00:20;;;;;;;7.25;4.17;;;;;;;12.45;51.98;99178.00;3692954;80;44030;-23
2021/04/23 18:05:31;;;;;;;11.08;4.10;;;;;;;12.02;53.29;99177.25;3697613;80;44428;-22
2021/04/23 18:10:37;;;;;;;9.05;4.30;;;;;;;11.87;52.50;99178.23;3692216;80;44010;-22
2021/04/23 18:15:46;;;;;;;7.30;4.00;;;;;;;11.52;53.56;99181.67;3697659;78;43379;-22
2021/04/23 18:20:53;;;;;;;7.33;3.92;;;;;;;11.33;53.61;99183.94;3696158;80;44115;-22
2021/04/23 18:26:00;;;;;;;9.40;4.40;;;;;;;10.95;54.23;99191.48;3697273;80;43414;-22
2021/04/23 18:31:09;;;;;;;9.18;4.17;;;;;;;10.74;54.78;99198.42;3687890;80;44039;-22
2021/04/23 18:36:19;;;;;;;8.45;4.50;;;;;;;10.46;54.34;99200.97;3695855;80;44416;-22
2021/04/23 18:41:28;;;;;;;9.43;5.03;;;;;;;10.29;57.22;99207.03;3693713;80;43389;-22
2021/04/23 18:46:35;;;;;;;10.48;6.40;;;;;;;10.01;59.94;99214.41;3697183;80;43505;-22
2021/04/23 18:51:42;;;;;;;12.45;6.30;;;;;;;9.88;60.35;99223.22;3718276;80;44030;-22
2021/04/23 18:56:48;;;;;;;10.58;5.45;;;;;;;9.75;61.09;99219.44;3706176;80;43681;-21
2021/04/23 19:01:54;;;;;;;11.95;6.90;;;;;;;9.49;63.15;99233.34;3705736;80;44072;-22
2021/04/23 19:07:01;;;;;;;10.85;6.72;;;;;;;9.34;64.02;99234.70;3705741;80;43720;-22
2021/04/23 19:12:08;;;;;;;12.10;6.33;;;;;;;9.07;65.38;99237.44;3706227;80;75401;-21
2021/04/23 19:17:14;;;;;;;10.40;6.45;;;;;;;8.81;65.95;99230.27;3706706;80;43340;-22
2021/04/23 19:22:21;;;;;;;11.53;6.78;;;;;;;8.63;65.81;99231.69;3706666;80;43457;-22
2021/04/23 19:27:28;;;;;;;14.40;6.40;;;;;;;8.50;65.86;99243.09;3702372;80;43341;-22
2021/04/23 19:32:54;;;;;;;10.28;6.22;;;;;;;8.51;65.20;99246.14;3706381;80;44084;-22
2021/04/23 19:38:03;;;;;;;15.78;7.95;;;;;;;8.48;64.52;99241.02;3679405;79;44182;-22
2021/04/23 19:43:09;;;;;;;10.43;5.73;;;;;;;8.40;64.85;99242.12;3711254;79;44010;-22
2021/04/23 19:48:15;;;;;;;11.73;7.10;;;;;;;8.34;64.30;99238.11;3703654;78;43431;-22
2021/04/23 19:53:21;;;;;;;10.20;6.30;;;;;;;8.28;64.32;99232.77;3703680;80;43722;-24
2021/04/23 19:58:27;;;;;;;11.83;6.55;;;;;;;8.18;65.22;99237.16;3694810;80;43695;-25
2021/04/23 20:03:33;;;;;;;12.90;6.97;;;;;;;8.09;65.67;99244.15;3695412;80;75278;-25
2021/04/23 20:08:39;;;;;;;10.60;6.17;;;;;;;7.81;70.21;99246.87;3696817;80;43132;-24
2021/04/23 20:13:45;;;;;;;11.80;7.37;;;;;;;7.46;73.59;99250.03;3567255;83;43956;-25
2021/04/23 20:18:52;;;;;;;12.28;6.62;;;;;;;7.32;73.96;99249.79;3691914;80;43465;-26
2021/04/23 20:23:59;;;;;;;11.90;7.08;;;;;;;7.37;72.02;99248.92;3696945;80;43455;-24
2021/04/23 20:29:05;;;;;;;9.85;7.08;;;;;;;7.35;72.06;99250.87;3694106;80;44089;-24
2021/04/23 20:34:11;;;;;;;12.70;7.65;;;;;;;7.04;75.15;99253.77;3695361;80;43489;-26
2021/04/23 20:39:18;;;;;;;10.93;7.43;;;;;;;6.83;78.94;99249.55;3687757;80;75381;-24
2021/04/23 20:44:24;;;;;;;13.90;7.20;;;;;;;6.62;81.33;99255.08;3693452;80;43672;-24
2021/04/23 20:49:30;;;;;;;16.07;7.95;;;;;;;6.35;85.32;99247.29;3694135;80;42778;-24
2021/04/23 20:54:37;;;;;;;13.80;8.03;;;;;;;6.26;87.37;99245.30;3697247;80;43994;-24
2021/04/23 20:59:43;;;;;;;12.00;6.70;;;;;;;6.15;87.66;99248.29;3697612;80;43673;-24
2021/04/23 21:04:49;;;;;;;17.83;8.33;;;;;;;6.13;85.97;99234.16;3695498;80;44078;-24
2021/04/23 21:09:55;;;;;;;12.33;7.63;;;;;;;6.14;84.76;99233.20;3697983;80;44499;-25
2021/04/23 21:15:01;;;;;;;14.30;7.93;;;;;;;6.10;84.24;99237.55;3693593;80;43441;-24
2021/04/23 21:20:10;;;;;;;15.57;7.87;;;;;;;6.02;85.24;99236.77;3697313;80;43371;-24
2021/04/23 21:25:16;;;;;;;15.97;7.40;;;;;;;5.97;84.76;99232.20;3698438;80;43305;-25
2021/04/23 21:30:24;;;;;;;14.93;7.43;;;;;;;5.90;85.20;99229.61;3698357;80;44023;-24
2021/04/23 21:35:31;;;;;;;11.85;7.42;;;;;;;5.74;88.37;99225.36;3689652;80;75789;-24
2021/04/23 21:40:39;;;;;;;12.87;7.07;;;;;;;5.52;91.15;99216.21;3691908;80;43682;-24
2021/04/23 21:45:45;;;;;;;12.95;7.70;;;;;;;5.47;89.16;99218.34;3694430;80;75314;-24
2021/04/23 21:50:51;;;;;;;10.63;6.87;;;;;;;5.51;87.46;99221.68;3701067;79;43462;-24
2021/04/23 21:55:57;;;;;;;10.77;6.27;;;;;;;5.46;87.35;99222.01;3710987;80;44600;-22
2021/04/23 22:01:02;;;;;;;10.30;6.93;;;;;;;5.42;87.49;99224.98;3710899;80;43967;-24
2021/04/23 22:06:08;;;;;;;10.70;6.00;;;;;;;5.31;87.92;99228.42;3707224;80;43755;-24
2021/04/23 22:11:14;;;;;;;13.57;6.87;;;;;;;5.20;89.15;99223.36;3708427;80;44113;-24
2021/04/23 22:16:20;;;;;;;13.53;7.00;;;;;;;5.10;89.74;99222.30;3708714;80;44045;-24
2021/04/23 22:21:26;;;;;;;12.23;6.80;;;;;;;4.93;91.77;99216.30;3711224;80;43300;-24
2021/04/23 22:26:32;;;;;;;13.07;7.20;;;;;;;4.80;93.03;99213.25;3708394;80;44098;-24
2021/04/23 22:31:38;;;;;;;14.30;7.70;;;;;;;4.68;93.49;99209.13;3707263;80;44903;-26
2021/04/23 22:36:44;;;;;;;11.80;6.90;;;;;;;4.65;94.39;99219.12;3706868;80;42935;-24
2021/04/23 22:41:50;;;;;;;15.73;7.63;;;;;;;4.61;95.14;99216.69;3709935;80;43682;-24
2021/04/23 22:46:57;;;;;;;16.47;8.10;;;;;;;4.60;94.35;99213.64;3707090;80;44006;-26
2021/04/23 22:52:02;;;;;;;13.63;8.17;;;;;;;4.58;94.51;99209.37;3707380;80;44049;-24
2021/04/23 22:57:08;;;;;;;13.37;7.83;;;;;;;4.62;94.80;99214.39;3705922;80;43397;-24
2021/04/23 23:02:14;;;;;;;16.20;7.80;;;;;;;4.65;93.84;99212.45;3710196;79;44074;-26
2021/04/23 23:07:23;;;;;;;12.87;7.77;;;;;;;4.55;94.72;99213.08;3704838;80;43744;-26
2021/04/23 23:12:28;;;;;;;12.23;7.97;;;;;;;4.35;97.45;99220.23;3583394;82;43395;-26
2021/04/23 23:17:34;;;;;;;13.00;7.20;;;;;;;4.24;97.75;99215.59;3643327;81;44001;-26
2021/04/23 23:22:40;;;;;;;16.27;7.97;;;;;;;4.10;99.51;99215.19;3584087;82;43682;-26
2021/04/23 23:27:46;;;;;;;13.07;8.17;;;;;;;3.94;100.00;99211.33;3583228;82;44074;-26
2021/04/23 23:32:52;;;;;;;13.53;7.70;;;;;;;3.82;100.00;99206.33;3628644;81;43690;-26
2021/04/23 23:37:58;;;;;;;13.60;6.77;;;;;;;3.78;100.00;99210.14;3642748;81;43689;-26
2021/04/23 23:43:04;;;;;;;11.87;7.37;;;;;;;3.72;100.00;99210.52;3641942;81;43316;-26
2021/04/23 23:48:10;;;;;;;13.03;6.93;;;;;;;3.64;100.00;99210.54;3648017;81;43455;-26
2021/04/23 23:53:17;;;;;;;14.03;7.07;;;;;;;3.53;100.00;99205.88;3645612;81;44042;-25
2021/04/23 23:58:23;;;;;;;12.40;7.00;;;;;;;3.48;100.00;99205.79;3646828;81;44066;-26
